createdAt,value
2018-12-14T00:00:26.506Z,101571.16
2018-12-14T00:05:19.694Z,101571.11
2018-12-14T00:10:14.930Z,101560.05
2018-12-14T00:15:10.608Z,101575.30
2018-12-14T00:20:07.039Z,101565.34
2018-12-14T00:25:00.337Z,101565.22
2018-12-14T00:29:54.234Z,101557.20
2018-12-14T00:34:49.783Z,101556.84
2018-12-14T00:39:42.979Z,101549.34
2018-12-14T00:44:36.233Z,101553.92
2018-12-14T00:49:29.428Z,101553.88
2018-12-14T00:54:22.625Z,101558.74
2018-12-14T00:59:15.830Z,101565.48
2018-12-14T01:04:09.044Z,101561.91
2018-12-14T01:09:03.031Z,101570.32
2018-12-14T01:13:56.753Z,101562.21
2018-12-14T01:18:49.977Z,101570.30
2018-12-14T01:23:43.147Z,101578.93
2018-12-14T01:28:36.342Z,101582.81
2018-12-14T01:33:29.536Z,101585.94
2018-12-14T01:38:22.752Z,101584.30
2018-12-14T01:43:15.931Z,101587.13
2018-12-14T01:48:09.109Z,101584.39
2018-12-14T01:53:02.285Z,101590.06
2018-12-14T01:57:55.478Z,101590.80
2018-12-14T02:02:48.710Z,101591.62
2018-12-14T02:07:41.889Z,101596.23
2018-12-14T02:12:35.107Z,101590.31
2018-12-14T02:17:28.321Z,101586.02
2018-12-14T02:22:21.522Z,101581.98
2018-12-14T02:27:14.783Z,101582.86
2018-12-14T02:32:08.879Z,101577.59
2018-12-14T02:37:02.092Z,101572.48
2018-12-14T02:41:55.285Z,101564.64
2018-12-14T02:46:48.506Z,101564.00
2018-12-14T02:51:41.721Z,101568.23
2018-12-14T02:56:34.959Z,101572.59
2018-12-14T03:01:28.257Z,101569.48
2018-12-14T03:06:21.422Z,101568.53
2018-12-14T03:11:14.617Z,101568.01
2018-12-14T03:16:07.880Z,101556.91
2018-12-14T03:21:01.055Z,101560.50
2018-12-14T03:25:54.714Z,101563.78
2018-12-14T03:30:47.923Z,101564.04
2018-12-14T03:35:41.114Z,101565.66
2018-12-14T03:40:34.311Z,101575.22
2018-12-14T03:45:27.518Z,101567.35
2018-12-14T03:50:20.730Z,101560.05
2018-12-14T03:55:13.940Z,101558.00
2018-12-14T04:00:09.382Z,101558.41
2018-12-14T04:05:02.613Z,101559.44
2018-12-14T04:09:56.039Z,101563.41
2018-12-14T04:14:49.515Z,101569.25
2018-12-14T04:19:42.833Z,101577.20
2018-12-14T04:24:36.027Z,101583.95
2018-12-14T04:29:29.265Z,101577.17
2018-12-14T04:34:22.481Z,101572.52
2018-12-14T04:39:15.706Z,101571.89
2018-12-14T04:44:09.155Z,101577.84
2018-12-14T04:49:03.126Z,101580.98
2018-12-14T04:53:56.333Z,101577.14
2018-12-14T04:58:49.486Z,101582.25
2018-12-14T05:03:43.752Z,101579.77
2018-12-14T05:08:36.957Z,101586.76
2018-12-14T05:13:30.157Z,101585.09
2018-12-14T05:18:23.367Z,101587.59
2018-12-14T05:23:16.603Z,101598.53
2018-12-14T05:28:09.819Z,101599.20
2018-12-14T05:33:03.003Z,101599.11
2018-12-14T05:37:56.195Z,101594.97
2018-12-14T05:42:49.406Z,101597.97
2018-12-14T05:47:42.811Z,101597.30
2018-12-14T05:52:35.990Z,101590.78
2018-12-14T05:57:29.151Z,101592.08
2018-12-14T06:02:22.634Z,101585.38
2018-12-14T06:07:15.884Z,101600.20
2018-12-14T06:12:09.428Z,101598.28
2018-12-14T06:17:02.671Z,101599.15
2018-12-14T06:21:55.861Z,101611.31
2018-12-14T06:26:49.045Z,101614.87
2018-12-14T06:31:42.213Z,101616.41
2018-12-14T06:36:35.427Z,101619.14
2018-12-14T06:41:29.176Z,101624.57
2018-12-14T06:46:22.349Z,101626.85
2018-12-14T06:51:15.534Z,101631.38
2018-12-14T06:56:08.770Z,101634.94
2018-12-14T07:01:01.979Z,101649.09
2018-12-14T07:05:55.234Z,101647.67
2018-12-14T07:10:48.425Z,101645.82
2018-12-14T07:15:41.621Z,101659.25
2018-12-14T07:20:35.003Z,101658.67
2018-12-14T07:25:28.217Z,101656.95
2018-12-14T07:30:21.423Z,101674.19
2018-12-14T07:35:14.646Z,101671.34
2018-12-14T07:40:08.170Z,101680.70
2018-12-14T07:45:02.063Z,101692.01
2018-12-14T07:49:55.275Z,101694.88
2018-12-14T07:54:48.492Z,101696.00
2018-12-14T07:59:41.722Z,101703.34
2018-12-14T08:04:35.904Z,101710.89
2018-12-14T08:09:30.747Z,101717.04
2018-12-14T08:14:23.985Z,101723.84
2018-12-14T08:19:17.908Z,101717.41
2018-12-14T08:24:11.149Z,101727.57
2018-12-14T08:29:04.317Z,101735.64
2018-12-14T08:33:57.499Z,101732.59
2018-12-14T08:38:51.380Z,101732.51
2018-12-14T08:43:44.552Z,101738.61
2018-12-14T08:48:37.781Z,101747.52
2018-12-14T08:53:32.150Z,101750.32
2018-12-14T08:58:26.010Z,101759.11
2018-12-14T09:03:19.184Z,101765.20
2018-12-14T09:08:12.391Z,101765.17
2018-12-14T09:13:05.569Z,101772.90
2018-12-14T09:17:58.729Z,101783.13
2018-12-14T09:22:51.907Z,101784.09
2018-12-14T09:27:45.117Z,101788.45
2018-12-14T09:32:39.299Z,101784.72
2018-12-14T09:37:34.372Z,101790.80
2018-12-14T09:42:29.723Z,101790.74
2018-12-14T09:47:24.402Z,101789.99
2018-12-14T09:52:19.009Z,101795.63
2018-12-14T09:57:12.928Z,101791.59
2018-12-14T10:02:06.241Z,101788.56
2018-12-14T10:06:59.422Z,101791.70
2018-12-14T10:11:55.336Z,101789.65
2018-12-14T10:16:48.905Z,101789.23
2018-12-14T10:21:42.102Z,101790.41
2018-12-14T10:26:35.297Z,101781.91
2018-12-14T10:31:28.470Z,101778.80
2018-12-14T10:36:21.860Z,101774.73
2018-12-14T10:41:15.015Z,101768.95
2018-12-14T10:46:08.221Z,101763.02
2018-12-14T10:51:01.630Z,101761.23
2018-12-14T10:55:56.042Z,101760.57
2018-12-14T11:00:55.134Z,101756.38
2018-12-14T11:05:48.365Z,101759.47
2018-12-14T11:10:41.583Z,101758.98
2018-12-14T11:15:34.852Z,101746.92
2018-12-14T11:20:28.110Z,101740.64
2018-12-14T11:25:21.325Z,101745.64
2018-12-14T11:30:16.614Z,101748.86
2018-12-14T11:35:09.976Z,101750.53
2018-12-14T11:40:03.723Z,101750.22
2018-12-14T11:44:56.915Z,101748.80
2018-12-14T11:49:50.339Z,101738.63
2018-12-14T11:54:43.633Z,101740.23
2018-12-14T11:59:36.816Z,101735.09
2018-12-14T12:04:30.051Z,101736.88
2018-12-14T12:09:23.242Z,101736.28
2018-12-14T12:14:16.460Z,101731.84
2018-12-14T12:19:09.654Z,101728.70
2018-12-14T12:24:02.872Z,101734.64
2018-12-14T12:28:56.072Z,101738.14
2018-12-14T12:33:49.283Z,101729.84
2018-12-14T12:38:42.519Z,101732.76
2018-12-14T12:43:35.706Z,101729.73
2018-12-14T12:48:28.940Z,101730.14
2018-12-14T12:53:22.172Z,101736.28
2018-12-14T12:58:16.139Z,101735.27
2018-12-14T13:03:09.381Z,101734.80
2018-12-14T13:08:02.583Z,101740.05
2018-12-14T13:12:55.767Z,101744.49
2018-12-14T13:17:48.981Z,101750.83
2018-12-14T13:22:42.251Z,101744.74
2018-12-14T13:27:35.557Z,101726.66
2018-12-14T13:32:28.830Z,101742.03
2018-12-14T13:37:23.118Z,101760.00
2018-12-14T13:42:16.297Z,101764.17
2018-12-14T13:47:09.563Z,101772.18
2018-12-14T13:52:02.922Z,101774.77
2018-12-14T13:56:56.285Z,101785.22
2018-12-14T14:01:49.530Z,101788.27
2018-12-14T14:06:44.105Z,101797.45
2018-12-14T14:11:37.358Z,101801.36
2018-12-14T14:16:30.599Z,101800.41
2018-12-14T14:21:23.779Z,101802.39
2018-12-14T14:26:16.967Z,101820.67
2018-12-14T14:31:11.155Z,101813.38
2018-12-14T14:36:04.403Z,101823.26
2018-12-14T14:40:57.642Z,101816.22
2018-12-14T14:45:50.820Z,101819.73
2018-12-14T14:50:44.075Z,101826.41
2018-12-14T14:55:37.877Z,101831.91
2018-12-14T15:00:32.555Z,101834.98
2018-12-14T15:05:25.754Z,101830.72
2018-12-14T15:10:19.157Z,101839.42
2018-12-14T15:15:12.357Z,101844.73
2018-12-14T15:20:06.577Z,101850.72
2018-12-14T15:24:59.773Z,101849.24
2018-12-14T15:29:52.995Z,101858.81
2018-12-14T15:34:46.281Z,101871.59
2018-12-14T15:39:40.575Z,101875.11
2018-12-14T15:44:33.780Z,101877.85
2018-12-14T15:49:27.003Z,101878.11
2018-12-14T15:54:20.271Z,101879.52
2018-12-14T15:59:14.033Z,101876.70
2018-12-14T16:04:07.685Z,101876.45
2018-12-14T16:09:00.869Z,101885.08
2018-12-14T16:13:54.556Z,101881.52
2018-12-14T16:18:47.741Z,101888.13
2018-12-14T16:23:41.002Z,101884.64
2018-12-14T16:28:35.326Z,101882.17
2018-12-14T16:33:28.715Z,101883.97
2018-12-14T16:38:21.931Z,101886.69
2018-12-14T16:43:15.159Z,101895.44
2018-12-14T16:48:08.356Z,101891.70
2018-12-14T16:53:01.774Z,101894.27
2018-12-14T16:57:56.417Z,101898.01
2018-12-14T17:02:50.235Z,101908.95
2018-12-14T17:07:44.094Z,101916.58
2018-12-14T17:12:37.616Z,101919.91
2018-12-14T17:17:30.832Z,101921.95
2018-12-14T17:22:24.016Z,101922.72
2018-12-14T17:27:17.492Z,101923.48
2018-12-14T17:32:10.803Z,101933.36
2018-12-14T17:37:03.988Z,101931.72
2018-12-14T17:41:57.310Z,101918.41
2018-12-14T17:46:51.195Z,101947.63
2018-12-14T17:51:44.821Z,101945.39
2018-12-14T17:56:38.765Z,101955.63
2018-12-14T18:01:31.964Z,101961.82
2018-12-14T18:06:25.241Z,101966.08
2018-12-14T18:11:18.413Z,101963.91
2018-12-14T18:16:12.273Z,101967.17
2018-12-14T18:21:05.678Z,101965.69
2018-12-14T18:25:58.999Z,101966.64
2018-12-14T18:30:52.177Z,101980.28
2018-12-14T18:35:45.386Z,101983.66
2018-12-14T18:40:38.551Z,101986.84
2018-12-14T18:45:31.932Z,101988.81
2018-12-14T18:50:25.103Z,101990.35
2018-12-14T18:55:18.343Z,101997.34
2018-12-14T19:00:11.752Z,101992.43
2018-12-14T19:05:06.117Z,102006.47
2018-12-14T19:09:59.481Z,102009.32
2018-12-14T19:14:53.201Z,102020.14
2018-12-14T19:19:46.412Z,102023.90
2018-12-14T19:24:39.621Z,102026.68
2018-12-14T19:29:32.841Z,102033.69
2018-12-14T19:34:31.461Z,102034.17
2018-12-14T19:39:21.312Z,102039.85
2018-12-14T19:44:14.491Z,102037.27
2018-12-14T19:49:07.673Z,102032.88
2018-12-14T19:54:01.391Z,102034.08
2018-12-14T19:58:54.603Z,102028.56
2018-12-14T20:03:47.821Z,102027.86
2018-12-14T20:08:41.031Z,102029.03
2018-12-14T20:13:34.201Z,102030.39
2018-12-14T20:18:27.430Z,102023.78
2018-12-14T20:23:20.675Z,102024.14
2018-12-14T20:28:13.893Z,102028.26
2018-12-14T20:33:07.094Z,102028.67
2018-12-14T20:38:00.473Z,102020.95
2018-12-14T20:42:53.718Z,102017.64
2018-12-14T20:47:47.655Z,102012.31
2018-12-14T20:52:40.870Z,102014.81
2018-12-14T20:57:34.074Z,102028.06
2018-12-14T21:02:27.263Z,102020.68
2018-12-14T21:07:20.469Z,102017.55
2018-12-14T21:12:13.735Z,102015.70
2018-12-14T21:17:07.151Z,102015.10
2018-12-14T21:22:00.370Z,102006.70
2018-12-14T21:26:53.589Z,102003.65
2018-12-14T21:31:46.793Z,101998.33
2018-12-14T21:36:40.032Z,102001.34
2018-12-14T21:41:33.268Z,102002.56
2018-12-14T21:46:32.340Z,102011.34
2018-12-14T21:51:21.698Z,102009.39
2018-12-14T21:56:14.920Z,101998.08
2018-12-14T22:01:08.228Z,101998.09
2018-12-14T22:06:01.447Z,101990.68
2018-12-14T22:10:54.641Z,101987.91
2018-12-14T22:15:47.863Z,101992.41
2018-12-14T22:20:41.097Z,101989.03
2018-12-14T22:25:34.333Z,101991.39
2018-12-14T22:30:27.536Z,101985.92
2018-12-14T22:35:20.743Z,101985.44
2018-12-14T22:40:13.944Z,101987.59
2018-12-14T22:45:07.374Z,101993.42
2018-12-14T22:50:00.750Z,101997.42
2018-12-14T22:54:53.954Z,101994.31
2018-12-14T22:59:47.155Z,101998.25
2018-12-14T23:04:40.337Z,102000.87
2018-12-14T23:09:33.559Z,102003.98
2018-12-14T23:14:26.739Z,102009.70
2018-12-14T23:19:19.917Z,102008.67
2018-12-14T23:24:14.954Z,102014.61
2018-12-14T23:29:08.277Z,102017.48
2018-12-14T23:34:01.804Z,102021.95
2018-12-14T23:38:55.837Z,102020.29
2018-12-14T23:43:49.103Z,102017.16
2018-12-14T23:48:42.686Z,102020.43
2018-12-14T23:53:36.024Z,102031.17
2018-12-14T23:58:29.261Z,102032.34
